map of KFFC home
Great Circle Mapper logo
KFFC - Airport
Location
City:  Atlanta, Georgia, United States
Name:Atlanta Regional Falcon Field
ICAO:KFFC
FAA LID:FFC

Details
Type:Airport (Airfield)
Use:Public/Civil
Latitude:3321'28"N (33.357722)
Longitude:8434'21"W (-84.572527)
Datum:WGS 1984
Elevation:807 ft (246 m)
Variation:4.84W (WMM2015 magnetic declination)
-0.09 annual change
Runways:1
Longest:5768 × 100 ft (1758 × 30.5 m), paved

Time
Time Zone:UTC-5 (DST-4)
Local Time:

Weather
METAR:KFFC 261153Z AUTO 00000KT 10SM CLR 24/22 A3009 RMK AO2 SLP180 T02440217 10250 20222 53011

Related Locations
Nearby:
Farthest:MQZ: 11311 mi / 18204 km
Margaret River [Margaret River Airport], WA, AU

Find:

   beyond  
but within

Other Information
Maps:
NOTAMs:
Links:
Sources:

  
flag of United States
flag of Georgia
flag of Atlanta
  

Sectional Chart

Flight Planning
at skyvector.com

Satellite Image

Google Maps Satellite view

 

Copyright © 2004-2016 Karl L. Swartz. All rights reserved.
The Great Circle Mapper name and logo are trademarks of the Great Circle Mapper.
All other trademarks mentioned herein belong to their respective owners.
Please see credits for attibutions and further copyright information.

  Follow gcmap on Facebook Follow gcmap on Twitter Follow gcmap on Google+ GCmap on LinkedIn

hCard Microformat

Geo Microformat